Airfield :







YOU CAN JOIN US ON...

 
LOGIN :

Register | Disclaimer

   EN    FR    IT 

 









Legend :    VFR   Marginal VFR   IFR   Intensive IFR   Very Intensive IFR
Visi :
Ceiling :
>= 8 km
>= 3000ft
5 to 8 km
1000 to 3000 ft
1500m to 5 km
500 to 1000 ft
800 to 1500m
200 to 500 ft
< 800m
< 200 ft
Symbols :   Thunderstorms  Fog  Heavy snow  Heavy precipitations  Wind > 20 kt







- Airport Elevation : 171 ft
- IATA code : KEF


BIKF - Keflavik International

CURRENT METAR :
  • 251400Z 12017KT 9999 FEW016 BKN065 10/07 Q0998

EXPIRED METARs :
  • 251330Z 13017KT 9999 FEW016 BKN060 10/07 Q0998
  • 251300Z 13019KT 9999 FEW016 BKN055 10/07 Q0998
  • 251230Z 12020KT 9999 BKN014 BKN055 10/07 Q0998
  • 251200Z 12021KT 9999 BKN013 09/07 Q0999
  • 251130Z 13020KT 9999 BKN014 09/07 Q0999

TAF TAF BIKF
Valid from the 25 at 15:00 until the 26 at 15:00 UTC


251343Z 2515/2615 12016KT 9999 BKN025 OVC045 TX12/2515Z TN05/2611Z
TEMPO 2517/2522 5000 DZ BKN008 OVC013
BECMG 2522/2600 5000 RADZ BR SCT008 OVC015
BECMG 2605/2608 27008KT 9999 -SHRA BKN020
TEMPO 2607/2615 SHRA BKN013 OVC018
No reported NOTAMs for that airfield.



MET'MAP, your aeronautical weather chart ! - Copyright ORBIFLY December 2007 - Disclaimer

ORBIFLY MET'MAP TEAM :

Programming & Development : Alexandra Zaïnal
Concept & Development : Baudouin d'Aumeries
Co-Development & Prog : Marc-Olivier Méhu
Technical & hardware support : Manuel Goepfert

Contact : metmap@orbifly.com




SOURCES & CREDITS :

   NOAA